MV First Lady — WDD3673 — position and weather

sailwx.info

Track history (hours):
 
Tides and Currents Weather Stations Pressure Air Temp Water Temp Dewpoint Dewpoint Depression Visibility Wind Speed Wind Dir Waves Ship Positions

MV First Lady

Owner: QUEEN OF HEARTS CRUISES INC, NEW YORK, NY. More information available from US FCC via Universal Licensing System and Coast Guard Vessel Documentation Center.

Last reported at 2017-Nov-18 16:37 UTC. Time now 2017-Dec-18 13:05 UTC.
Position N 40°41' W 074°02'.
Warning: this ship's position is 29 days out of date.

Length 30 m; draft 24.8 m.

Type: Passenger vessel. MMSI: 36671530.

Date/timePositionNaut miles runAvg speedWind from/ knotsBaromVisibWave heightAir tempDewpointWater temp
2017-Nov-18 16:37N 40°41' W 074°02'3 1.1
2017-Nov-18 14:11N 40°43' W 073°59'2 7.0
2017-Nov-18 13:54N 40°41' W 074°01'0 0.3
2017-Nov-18 13:30N 40°41' W 074°01'0 0.0
2017-Nov-18 13:00N 40°41' W 074°01'0 0.0
2017-Nov-18 12:31N 40°41' W 074°01'0 0.0
2017-Nov-18 12:01N 40°41' W 074°01'0 0.0
2017-Nov-18 11:31N 40°41' W 074°01'0 0.0
2017-Nov-18 11:01N 40°41' W 074°01'0 0.0
2017-Nov-18 10:31N 40°41' W 074°01'0 0.0
2017-Nov-18 10:00N 40°41' W 074°01'0 0.0
2017-Nov-18 09:31N 40°41' W 074°01'0 0.0
2017-Nov-18 09:01N 40°41' W 074°01'0 0.0
2017-Nov-18 08:30N 40°41' W 074°01'0 0.0
2017-Nov-18 08:00N 40°41' W 074°01'0 0.0
2017-Nov-18 07:31N 40°41' W 074°01'0 0.0
2017-Nov-18 07:00N 40°41' W 074°01'0 0.0
2017-Nov-18 06:30N 40°41' W 074°01'0 0.0
2017-Nov-18 06:01N 40°41' W 074°01'0 0.0
2017-Nov-18 05:30N 40°41' W 074°01'0 0.0
2017-Nov-18 05:00N 40°41' W 074°01'0 0.0
2017-Nov-18 04:30N 40°41' W 074°01'0 0.0
2017-Nov-18 04:00N 40°41' W 074°01'0 0.0
2017-Nov-18 03:30N 40°41' W 074°01'0 0.0
2017-Nov-18 03:00N 40°41' W 074°01'0 0.0
2017-Nov-18 02:30N 40°41' W 074°01'0 0.0
2017-Nov-18 02:01N 40°41' W 074°01'0 0.0
2017-Nov-18 01:31N 40°41' W 074°01'0 0.0
2017-Nov-18 01:01N 40°41' W 074°01'1 2.4
2017-Nov-18 00:31N 40°42' W 074°00'1 1.8
2017-Nov-18 00:01N 40°43' W 073°59'0 0.0
2017-Nov-17 23:31N 40°43' W 073°59'2 3.1
2017-Nov-17 23:01N 40°42' W 074°01'0 0.1
2017-Nov-17 22:30N 40°42' W 074°01'2 3.0
2017-Nov-17 22:01N 40°43' W 073°59'0 0.0
2017-Nov-17 21:30N 40°43' W 073°59'0 0.0
2017-Nov-17 21:00N 40°43' W 073°59'2 4.7
2017-Nov-17 20:31N 40°41' W 074°02'2 3.2
2017-Nov-17 20:00N 40°42' W 073°60'1 0.2
2017-Nov-17 11:08N 40°41' W 074°01'0 0.0
2017-Nov-17 11:01N 40°41' W 074°01'  
2017-Nov-12 20:21N 40°42' W 074°01'1 4.0
2017-Nov-12 20:00N 40°43' W 073°59'0 0.0
2017-Nov-12 19:30N 40°43' W 073°59'2 3.4
2017-Nov-12 19:00N 40°42' W 074°01'0 1.0
2017-Nov-12 18:30N 40°42' W 074°00'1 2.4
2017-Nov-12 18:00N 40°43' W 073°59'0 0.0
2017-Nov-12 17:30N 40°43' W 073°59'3 5.3
2017-Nov-12 17:00N 40°41' W 074°02'2 4.3
2017-Nov-12 16:30N 40°42' W 073°60'0 0.9
2017-Nov-12 16:00N 40°43' W 073°59'0 0.0
2017-Nov-12 15:30N 40°43' W 073°59'1 1.6
2017-Nov-12 15:00N 40°42' W 074°00'1 2.7
2017-Nov-12 14:30N 40°41' W 074°01'0 0.0
2017-Nov-12 14:00N 40°41' W 074°01'0 0.0
2017-Nov-12 13:30N 40°41' W 074°01'0 0.0
2017-Nov-12 13:00N 40°41' W 074°01'0 0.0
2017-Nov-12 12:30N 40°41' W 074°01'0 0.0
2017-Nov-12 12:00N 40°41' W 074°01'0 0.0
2017-Nov-12 11:30N 40°41' W 074°01'0 0.0
2017-Nov-12 11:00N 40°41' W 074°01'0 0.0
2017-Nov-12 10:30N 40°41' W 074°01'0 0.0
2017-Nov-12 10:00N 40°41' W 074°01'0 0.0
2017-Nov-12 09:30N 40°41' W 074°01'0 0.0
2017-Nov-12 09:00N 40°41' W 074°01'0 0.0
2017-Nov-12 08:30N 40°41' W 074°01'0 0.0
2017-Nov-12 08:00N 40°41' W 074°01'0 0.0
2017-Nov-12 07:30N 40°41' W 074°01'0 0.0
2017-Nov-12 07:00N 40°41' W 074°01'0 0.0
2017-Nov-12 06:30N 40°41' W 074°01'0 0.0
2017-Nov-12 06:01N 40°41' W 074°01'0 0.0
2017-Nov-12 05:30N 40°41' W 074°01'0 0.3
2017-Nov-12 05:00N 40°41' W 074°01'2 3.8
2017-Nov-12 04:30N 40°43' W 073°59'0 0.0
2017-Nov-12 04:00N 40°43' W 073°59'0 0.0
2017-Nov-12 03:30N 40°43' W 073°59'0 0.0
2017-Nov-12 03:00N 40°43' W 073°59'0 0.0
2017-Nov-12 02:30N 40°43' W 073°59'0 0.0
2017-Nov-12 02:00N 40°43' W 073°59'0 0.0
2017-Nov-12 01:30N 40°43' W 073°59'0 0.0
2017-Nov-12 01:00N 40°43' W 073°59'0 0.0
2017-Nov-12 00:30N 40°43' W 073°59'0 1.0
2017-Nov-12 00:00N 40°42' W 073°60'2 4.8
2017-Nov-11 23:30N 40°41' W 074°02'3 5.7
2017-Nov-11 23:00N 40°43' W 073°59'2 0.4
2017-Nov-11 18:19N 40°42' W 074°02'0 0.3
2017-Nov-11 18:00N 40°42' W 074°02'2 4.4
2017-Nov-11 17:30N 40°43' W 073°59'0 0.0
2017-Nov-11 17:00N 40°43' W 073°59'0 0.8
2017-Nov-11 16:30N 40°42' W 073°60'2 3.7
2017-Nov-11 16:00N 40°42' W 074°02'2 1.2
2017-Nov-11 14:32N 40°42' W 073°60'0 6.7
2017-Nov-11 14:30N 40°42' W 073°60'1 0.1
2017-Nov-11 01:44N 40°43' W 073°59'0 0.0
2017-Nov-11 01:31N 40°43' W 073°59'0 0.0
2017-Nov-11 01:00N 40°43' W 073°59'0 0.0
2017-Nov-09 21:05N 40°43' W 073°59'0 0.0
2017-Nov-09 21:00N 40°43' W 073°59'0 0.0
2017-Nov-09 20:30N 40°43' W 073°59'0 0.0
2017-Nov-09 20:00N 40°43' W 073°59'0 0.0
2017-Nov-09 19:30N 40°43' W 073°59'0 0.0
2017-Nov-09 19:00N 40°43' W 073°59'0 0.0
2017-Nov-09 18:30N 40°43' W 073°59'0 0.0
2017-Nov-09 18:00N 40°43' W 073°59'0 0.0
2017-Nov-09 17:30N 40°43' W 073°59'0 0.0
2017-Nov-09 17:00N 40°43' W 073°59'0 0.0
2017-Nov-09 16:30N 40°43' W 073°59'0 0.0
2017-Nov-09 16:00N 40°43' W 073°59'0 0.0
2017-Nov-09 15:30N 40°43' W 073°59'0 0.0
2017-Nov-09 15:00N 40°43' W 073°59'0 0.0
2017-Nov-09 14:30N 40°43' W 073°59'0 0.0
2017-Nov-09 14:00N 40°43' W 073°59'0 0.0
2017-Nov-09 13:30N 40°43' W 073°59'0 0.0
2017-Nov-09 13:00N 40°43' W 073°59'0 0.0
2017-Nov-09 12:30N 40°43' W 073°59'0 0.0
2017-Nov-09 12:00N 40°43' W 073°59'0 0.0
2017-Nov-09 11:30N 40°43' W 073°59'0 0.0
2017-Nov-09 11:00N 40°43' W 073°59'0 0.0
2017-Nov-09 10:30N 40°43' W 073°59'0 0.0
2017-Nov-09 10:00N 40°43' W 073°59'0 0.0
2017-Nov-09 09:30N 40°43' W 073°59'0 0.0
2017-Nov-09 09:00N 40°43' W 073°59'0 0.0
2017-Nov-09 08:30N 40°43' W 073°59'0 0.0
2017-Nov-09 08:00N 40°43' W 073°59'0 0.0
2017-Nov-09 07:30N 40°43' W 073°59'0 0.0
2017-Nov-09 07:00N 40°43' W 073°59'0 0.0
2017-Nov-09 06:30N 40°43' W 073°59'0 0.0
2017-Nov-09 06:00N 40°43' W 073°59'0 0.0
2017-Nov-09 05:30N 40°43' W 073°59'0 0.0
2017-Nov-09 05:00N 40°43' W 073°59'0 0.0
2017-Nov-09 04:30N 40°43' W 073°59'0 0.0
2017-Nov-09 04:00N 40°43' W 073°59'0 0.0
2017-Nov-09 03:30N 40°43' W 073°59'0 0.0
2017-Nov-09 03:00N 40°43' W 073°59'0 0.0
2017-Nov-09 02:30N 40°43' W 073°59'0 0.0
2017-Nov-09 02:00N 40°43' W 073°59'0 0.0
2017-Nov-09 01:30N 40°43' W 073°59'0 0.0
2017-Nov-09 01:00N 40°43' W 073°59'0 0.0
2017-Nov-09 00:30N 40°43' W 073°59'0 0.0
2017-Nov-09 00:00N 40°43' W 073°59'0 0.0
2017-Nov-08 23:30N 40°43' W 073°59'0 0.0
2017-Nov-08 23:00N 40°43' W 073°59'0 0.0
2017-Nov-08 22:30N 40°43' W 073°59'0 0.0
2017-Nov-08 22:00N 40°43' W 073°59'0 0.0
2017-Nov-08 21:30N 40°43' W 073°59'0 0.0
2017-Nov-08 21:00N 40°43' W 073°59'0 0.0
2017-Nov-08 20:30N 40°43' W 073°59'0 0.0
2017-Nov-08 20:00N 40°43' W 073°59'0 0.0
2017-Nov-08 19:30N 40°43' W 073°59'0 0.0
2017-Nov-08 19:00N 40°43' W 073°59'0 0.0
2017-Nov-08 18:30N 40°43' W 073°59'0 0.0
2017-Nov-08 18:00N 40°43' W 073°59'0 0.0
2017-Nov-08 17:30N 40°43' W 073°59'0 0.0
2017-Nov-08 17:00N 40°43' W 073°59'  
Track history (hours):
 
Tides and Currents Weather Stations Pressure Air Temp Water Temp Dewpoint Dewpoint Depression Visibility Wind Speed Wind Dir Waves Ship Positions

MV First Lady

Owner: QUEEN OF HEARTS CRUISES INC, NEW YORK, NY. More information available from US FCC via Universal Licensing System and Coast Guard Vessel Documentation Center.

Last reported at 2017-Nov-18 16:37 UTC. Time now 2017-Dec-18 13:05 UTC.
Position N 40°41' W 074°02'.
Warning: this ship's position is 29 days out of date.

Length 30 m; draft 24.8 m.

Type: Passenger vessel. MMSI: 36671530.

Date/timePositionNaut miles runAvg speedWind from/ knotsBaromVisibWave heightAir tempDewpointWater temp
2017-Nov-18 16:37N 40°41' W 074°02'3 1.1
2017-Nov-18 14:11N 40°43' W 073°59'2 7.0
2017-Nov-18 13:54N 40°41' W 074°01'0 0.3
2017-Nov-18 13:30N 40°41' W 074°01'0 0.0
2017-Nov-18 13:00N 40°41' W 074°01'0 0.0
2017-Nov-18 12:31N 40°41' W 074°01'0 0.0
2017-Nov-18 12:01N 40°41' W 074°01'0 0.0
2017-Nov-18 11:31N 40°41' W 074°01'0 0.0
2017-Nov-18 11:01N 40°41' W 074°01'0 0.0
2017-Nov-18 10:31N 40°41' W 074°01'0 0.0
2017-Nov-18 10:00N 40°41' W 074°01'0 0.0
2017-Nov-18 09:31N 40°41' W 074°01'0 0.0
2017-Nov-18 09:01N 40°41' W 074°01'0 0.0
2017-Nov-18 08:30N 40°41' W 074°01'0 0.0
2017-Nov-18 08:00N 40°41' W 074°01'0 0.0
2017-Nov-18 07:31N 40°41' W 074°01'0 0.0
2017-Nov-18 07:00N 40°41' W 074°01'0 0.0
2017-Nov-18 06:30N 40°41' W 074°01'0 0.0
2017-Nov-18 06:01N 40°41' W 074°01'0 0.0
2017-Nov-18 05:30N 40°41' W 074°01'0 0.0
2017-Nov-18 05:00N 40°41' W 074°01'0 0.0
2017-Nov-18 04:30N 40°41' W 074°01'0 0.0
2017-Nov-18 04:00N 40°41' W 074°01'0 0.0
2017-Nov-18 03:30N 40°41' W 074°01'0 0.0
2017-Nov-18 03:00N 40°41' W 074°01'0 0.0
2017-Nov-18 02:30N 40°41' W 074°01'0 0.0
2017-Nov-18 02:01N 40°41' W 074°01'0 0.0
2017-Nov-18 01:31N 40°41' W 074°01'0 0.0
2017-Nov-18 01:01N 40°41' W 074°01'1 2.4
2017-Nov-18 00:31N 40°42' W 074°00'1 1.8
2017-Nov-18 00:01N 40°43' W 073°59'0 0.0
2017-Nov-17 23:31N 40°43' W 073°59'2 3.1
2017-Nov-17 23:01N 40°42' W 074°01'0 0.1
2017-Nov-17 22:30N 40°42' W 074°01'2 3.0
2017-Nov-17 22:01N 40°43' W 073°59'0 0.0
2017-Nov-17 21:30N 40°43' W 073°59'0 0.0
2017-Nov-17 21:00N 40°43' W 073°59'2 4.7
2017-Nov-17 20:31N 40°41' W 074°02'2 3.2
2017-Nov-17 20:00N 40°42' W 073°60'1 0.2
2017-Nov-17 11:08N 40°41' W 074°01'0 0.0
2017-Nov-17 11:01N 40°41' W 074°01'  
2017-Nov-12 20:21N 40°42' W 074°01'1 4.0
2017-Nov-12 20:00N 40°43' W 073°59'0 0.0
2017-Nov-12 19:30N 40°43' W 073°59'2 3.4
2017-Nov-12 19:00N 40°42' W 074°01'0 1.0
2017-Nov-12 18:30N 40°42' W 074°00'1 2.4
2017-Nov-12 18:00N 40°43' W 073°59'0 0.0
2017-Nov-12 17:30N 40°43' W 073°59'3 5.3
2017-Nov-12 17:00N 40°41' W 074°02'2 4.3
2017-Nov-12 16:30N 40°42' W 073°60'0 0.9
2017-Nov-12 16:00N 40°43' W 073°59'0 0.0
2017-Nov-12 15:30N 40°43' W 073°59'1 1.6
2017-Nov-12 15:00N 40°42' W 074°00'1 2.7
2017-Nov-12 14:30N 40°41' W 074°01'0 0.0
2017-Nov-12 14:00N 40°41' W 074°01'0 0.0
2017-Nov-12 13:30N 40°41' W 074°01'0 0.0
2017-Nov-12 13:00N 40°41' W 074°01'0 0.0
2017-Nov-12 12:30N 40°41' W 074°01'0 0.0
2017-Nov-12 12:00N 40°41' W 074°01'0 0.0
2017-Nov-12 11:30N 40°41' W 074°01'0 0.0
2017-Nov-12 11:00N 40°41' W 074°01'0 0.0
2017-Nov-12 10:30N 40°41' W 074°01'0 0.0
2017-Nov-12 10:00N 40°41' W 074°01'0 0.0
2017-Nov-12 09:30N 40°41' W 074°01'0 0.0
2017-Nov-12 09:00N 40°41' W 074°01'0 0.0
2017-Nov-12 08:30N 40°41' W 074°01'0 0.0
2017-Nov-12 08:00N 40°41' W 074°01'0 0.0
2017-Nov-12 07:30N 40°41' W 074°01'0 0.0
2017-Nov-12 07:00N 40°41' W 074°01'0 0.0
2017-Nov-12 06:30N 40°41' W 074°01'0 0.0
2017-Nov-12 06:01N 40°41' W 074°01'0 0.0
2017-Nov-12 05:30N 40°41' W 074°01'0 0.3
2017-Nov-12 05:00N 40°41' W 074°01'2 3.8
2017-Nov-12 04:30N 40°43' W 073°59'0 0.0
2017-Nov-12 04:00N 40°43' W 073°59'0 0.0
2017-Nov-12 03:30N 40°43' W 073°59'0 0.0
2017-Nov-12 03:00N 40°43' W 073°59'0 0.0
2017-Nov-12 02:30N 40°43' W 073°59'0 0.0
2017-Nov-12 02:00N 40°43' W 073°59'0 0.0
2017-Nov-12 01:30N 40°43' W 073°59'0 0.0
2017-Nov-12 01:00N 40°43' W 073°59'0 0.0
2017-Nov-12 00:30N 40°43' W 073°59'0 1.0
2017-Nov-12 00:00N 40°42' W 073°60'2 4.8
2017-Nov-11 23:30N 40°41' W 074°02'3 5.7
2017-Nov-11 23:00N 40°43' W 073°59'2 0.4
2017-Nov-11 18:19N 40°42' W 074°02'0 0.3
2017-Nov-11 18:00N 40°42' W 074°02'2 4.4
2017-Nov-11 17:30N 40°43' W 073°59'0 0.0
2017-Nov-11 17:00N 40°43' W 073°59'0 0.8
2017-Nov-11 16:30N 40°42' W 073°60'2 3.7
2017-Nov-11 16:00N 40°42' W 074°02'2 1.2
2017-Nov-11 14:32N 40°42' W 073°60'0 6.7
2017-Nov-11 14:30N 40°42' W 073°60'1 0.1
2017-Nov-11 01:44N 40°43' W 073°59'0 0.0
2017-Nov-11 01:31N 40°43' W 073°59'0 0.0
2017-Nov-11 01:00N 40°43' W 073°59'0 0.0
2017-Nov-09 21:05N 40°43' W 073°59'0 0.0
2017-Nov-09 21:00N 40°43' W 073°59'0 0.0
2017-Nov-09 20:30N 40°43' W 073°59'0 0.0
2017-Nov-09 20:00N 40°43' W 073°59'0 0.0
2017-Nov-09 19:30N 40°43' W 073°59'0 0.0
2017-Nov-09 19:00N 40°43' W 073°59'0 0.0
2017-Nov-09 18:30N 40°43' W 073°59'0 0.0
2017-Nov-09 18:00N 40°43' W 073°59'0 0.0
2017-Nov-09 17:30N 40°43' W 073°59'0 0.0
2017-Nov-09 17:00N 40°43' W 073°59'0 0.0
2017-Nov-09 16:30N 40°43' W 073°59'0 0.0
2017-Nov-09 16:00N 40°43' W 073°59'0 0.0
2017-Nov-09 15:30N 40°43' W 073°59'0 0.0
2017-Nov-09 15:00N 40°43' W 073°59'0 0.0
2017-Nov-09 14:30N 40°43' W 073°59'0 0.0
2017-Nov-09 14:00N 40°43' W 073°59'0 0.0
2017-Nov-09 13:30N 40°43' W 073°59'0 0.0
2017-Nov-09 13:00N 40°43' W 073°59'0 0.0
2017-Nov-09 12:30N 40°43' W 073°59'0 0.0
2017-Nov-09 12:00N 40°43' W 073°59'0 0.0
2017-Nov-09 11:30N 40°43' W 073°59'0 0.0
2017-Nov-09 11:00N 40°43' W 073°59'0 0.0
2017-Nov-09 10:30N 40°43' W 073°59'0 0.0
2017-Nov-09 10:00N 40°43' W 073°59'0 0.0
2017-Nov-09 09:30N 40°43' W 073°59'0 0.0
2017-Nov-09 09:00N 40°43' W 073°59'0 0.0
2017-Nov-09 08:30N 40°43' W 073°59'0 0.0
2017-Nov-09 08:00N 40°43' W 073°59'0 0.0
2017-Nov-09 07:30N 40°43' W 073°59'0 0.0
2017-Nov-09 07:00N 40°43' W 073°59'0 0.0
2017-Nov-09 06:30N 40°43' W 073°59'0 0.0
2017-Nov-09 06:00N 40°43' W 073°59'0 0.0
2017-Nov-09 05:30N 40°43' W 073°59'0 0.0
2017-Nov-09 05:00N 40°43' W 073°59'0 0.0
2017-Nov-09 04:30N 40°43' W 073°59'0 0.0
2017-Nov-09 04:00N 40°43' W 073°59'0 0.0
2017-Nov-09 03:30N 40°43' W 073°59'0 0.0
2017-Nov-09 03:00N 40°43' W 073°59'0 0.0
2017-Nov-09 02:30N 40°43' W 073°59'0 0.0
2017-Nov-09 02:00N 40°43' W 073°59'0 0.0
2017-Nov-09 01:30N 40°43' W 073°59'0 0.0
2017-Nov-09 01:00N 40°43' W 073°59'0 0.0
2017-Nov-09 00:30N 40°43' W 073°59'0 0.0
2017-Nov-09 00:00N 40°43' W 073°59'0 0.0
2017-Nov-08 23:30N 40°43' W 073°59'0 0.0
2017-Nov-08 23:00N 40°43' W 073°59'0 0.0
2017-Nov-08 22:30N 40°43' W 073°59'0 0.0
2017-Nov-08 22:00N 40°43' W 073°59'0 0.0
2017-Nov-08 21:30N 40°43' W 073°59'0 0.0
2017-Nov-08 21:00N 40°43' W 073°59'0 0.0
2017-Nov-08 20:30N 40°43' W 073°59'0 0.0
2017-Nov-08 20:00N 40°43' W 073°59'0 0.0
2017-Nov-08 19:30N 40°43' W 073°59'0 0.0
2017-Nov-08 19:00N 40°43' W 073°59'0 0.0
2017-Nov-08 18:30N 40°43' W 073°59'0 0.0
2017-Nov-08 18:00N 40°43' W 073°59'0 0.0
2017-Nov-08 17:30N 40°43' W 073°59'0 0.0
2017-Nov-08 17:00N 40°43' W 073°59'  

Dump ship's entire track history